Pulaski, Georgia
Current Conditions -  °F | °C
As of 12:15 PM on Thursday 30 Oct 2014 (Local Time) from KCWV Reporting Station
Overcast Overcast  
Wind Chill: 66°   Ceiling: 1400
Heat Index: 66°   Visibility: 10mi
Dew Point: 61°   Wind: 5mph
Humidity: 83%   Direction: 10°N
Pressure: 30.01"   Gusts: NA
Location:  32.39°N, 81.96°W
Report Text: KCWV 301615Z AUTO 01004KT 10SM OVC014 19/16 A3001 RMK AO2
Loading
Personal Weather Stations






























Interactive Weather Map
Tropical Storm Tracking
New forecast layout! Learn more

10-Day Weather Forecast

Advertisements
Track Severe Weather on mobile